sensor_id;sensor_type;location;lat;lon;timestamp;P1;durP1;ratioP1;P2;durP2;ratioP2
66437;SDS011;54537;47.972;11.662;2023-04-25T00:02:00;3.20;;;1.75;;
66437;SDS011;54537;47.972;11.662;2023-04-25T00:04:28;3.80;;;1.52;;
66437;SDS011;54537;47.972;11.662;2023-04-25T00:06:55;4.45;;;2.05;;
66437;SDS011;54537;47.972;11.662;2023-04-25T00:09:23;3.03;;;1.42;;
66437;SDS011;54537;47.972;11.662;2023-04-25T00:11:50;2.83;;;1.58;;
66437;SDS011;54537;47.972;11.662;2023-04-25T00:14:16;3.50;;;1.80;;
66437;SDS011;54537;47.972;11.662;2023-04-25T00:16:43;3.67;;;1.70;;
66437;SDS011;54537;47.972;11.662;2023-04-25T00:19:09;5.13;;;1.33;;
66437;SDS011;54537;47.972;11.662;2023-04-25T00:21:36;3.50;;;1.60;;
66437;SDS011;54537;47.972;11.662;2023-04-25T00:24:05;3.03;;;1.70;;
66437;SDS011;54537;47.972;11.662;2023-04-25T00:26:33;3.45;;;1.63;;
66437;SDS011;54537;47.972;11.662;2023-04-25T00:29:00;5.57;;;1.75;;
66437;SDS011;54537;47.972;11.662;2023-04-25T00:31:27;3.15;;;1.60;;
66437;SDS011;54537;47.972;11.662;2023-04-25T00:33:54;3.63;;;1.48;;
66437;SDS011;54537;47.972;11.662;2023-04-25T00:36:20;4.10;;;1.73;;
66437;SDS011;54537;47.972;11.662;2023-04-25T00:38:47;2.22;;;1.50;;
66437;SDS011;54537;47.972;11.662;2023-04-25T00:41:13;2.38;;;1.30;;
66437;SDS011;54537;47.972;11.662;2023-04-25T00:43:41;4.15;;;1.42;;
66437;SDS011;54537;47.972;11.662;2023-04-25T00:46:08;4.20;;;1.73;;
66437;SDS011;54537;47.972;11.662;2023-04-25T00:48:35;2.83;;;1.50;;
66437;SDS011;54537;47.972;11.662;2023-04-25T00:51:01;4.30;;;1.73;;
66437;SDS011;54537;47.972;11.662;2023-04-25T00:53:28;3.33;;;1.48;;
66437;SDS011;54537;47.972;11.662;2023-04-25T00:55:57;3.63;;;1.98;;
66437;SDS011;54537;47.972;11.662;2023-04-25T00:58:23;2.47;;;1.70;;
66437;SDS011;54537;47.972;11.662;2023-04-25T01:00:51;3.35;;;1.67;;
66437;SDS011;54537;47.972;11.662;2023-04-25T01:03:18;3.55;;;1.60;;
66437;SDS011;54537;47.972;11.662;2023-04-25T01:05:45;3.67;;;1.92;;
66437;SDS011;54537;47.972;11.662;2023-04-25T01:08:12;3.42;;;1.80;;
66437;SDS011;54537;47.972;11.662;2023-04-25T01:10:39;5.25;;;1.65;;
66437;SDS011;54537;47.972;11.662;2023-04-25T01:13:05;5.07;;;1.98;;
66437;SDS011;54537;47.972;11.662;2023-04-25T01:15:32;5.82;;;2.00;;
66437;SDS011;54537;47.972;11.662;2023-04-25T01:18:01;3.08;;;1.40;;
66437;SDS011;54537;47.972;11.662;2023-04-25T01:20:29;7.00;;;1.77;;
66437;SDS011;54537;47.972;11.662;2023-04-25T01:22:57;3.78;;;2.00;;
66437;SDS011;54537;47.972;11.662;2023-04-25T01:25:23;4.63;;;2.05;;
66437;SDS011;54537;47.972;11.662;2023-04-25T01:27:50;5.18;;;2.00;;
66437;SDS011;54537;47.972;11.662;2023-04-25T01:30:16;2.58;;;1.70;;
66437;SDS011;54537;47.972;11.662;2023-04-25T01:32:43;4.82;;;2.05;;
66437;SDS011;54537;47.972;11.662;2023-04-25T01:35:11;3.40;;;1.73;;
66437;SDS011;54537;47.972;11.662;2023-04-25T01:37:37;3.03;;;1.80;;
66437;SDS011;54537;47.972;11.662;2023-04-25T01:40:06;4.90;;;1.88;;
66437;SDS011;54537;47.972;11.662;2023-04-25T01:42:34;4.20;;;2.22;;
66437;SDS011;54537;47.972;11.662;2023-04-25T01:45:01;5.75;;;1.88;;
66437;SDS011;54537;47.972;11.662;2023-04-25T01:47:28;3.50;;;2.00;;
66437;SDS011;54537;47.972;11.662;2023-04-25T01:49:54;2.70;;;1.75;;
66437;SDS011;54537;47.972;11.662;2023-04-25T01:52:21;4.35;;;1.75;;
66437;SDS011;54537;47.972;11.662;2023-04-25T01:54:47;4.85;;;1.90;;
66437;SDS011;54537;47.972;11.662;2023-04-25T01:57:15;3.88;;;1.80;;
66437;SDS011;54537;47.972;11.662;2023-04-25T01:59:42;3.35;;;1.80;;
66437;SDS011;54537;47.972;11.662;2023-04-25T02:02:09;4.40;;;1.83;;
66437;SDS011;54537;47.972;11.662;2023-04-25T02:04:35;2.60;;;1.63;;
66437;SDS011;54537;47.972;11.662;2023-04-25T02:07:02;2.78;;;1.50;;
66437;SDS011;54537;47.972;11.662;2023-04-25T02:09:29;5.05;;;1.98;;
66437;SDS011;54537;47.972;11.662;2023-04-25T02:11:55;4.22;;;1.60;;
66437;SDS011;54537;47.972;11.662;2023-04-25T02:14:23;5.25;;;2.17;;
66437;SDS011;54537;47.972;11.662;2023-04-25T02:16:50;2.78;;;1.60;;
66437;SDS011;54537;47.972;11.662;2023-04-25T02:19:16;3.67;;;1.75;;
66437;SDS011;54537;47.972;11.662;2023-04-25T02:21:43;5.15;;;1.90;;
66437;SDS011;54537;47.972;11.662;2023-04-25T02:24:09;5.25;;;2.08;;
66437;SDS011;54537;47.972;11.662;2023-04-25T02:26:36;3.50;;;1.88;;
66437;SDS011;54537;47.972;11.662;2023-04-25T02:29:03;3.35;;;1.70;;
66437;SDS011;54537;47.972;11.662;2023-04-25T02:31:30;3.67;;;1.83;;
66437;SDS011;54537;47.972;11.662;2023-04-25T02:33:57;3.80;;;1.70;;
66437;SDS011;54537;47.972;11.662;2023-04-25T02:36:23;3.65;;;1.50;;
66437;SDS011;54537;47.972;11.662;2023-04-25T02:38:51;2.75;;;1.58;;
66437;SDS011;54537;47.972;11.662;2023-04-25T02:41:17;5.20;;;1.73;;
66437;SDS011;54537;47.972;11.662;2023-04-25T02:43:45;4.38;;;1.85;;
66437;SDS011;54537;47.972;11.662;2023-04-25T02:46:12;3.85;;;2.20;;
66437;SDS011;54537;47.972;11.662;2023-04-25T02:48:40;4.50;;;1.80;;
66437;SDS011;54537;47.972;11.662;2023-04-25T02:51:06;3.13;;;1.73;;
66437;SDS011;54537;47.972;11.662;2023-04-25T02:53:33;6.95;;;1.90;;
66437;SDS011;54537;47.972;11.662;2023-04-25T02:55:59;3.45;;;1.77;;
66437;SDS011;54537;47.972;11.662;2023-04-25T02:58:26;4.97;;;1.90;;
66437;SDS011;54537;47.972;11.662;2023-04-25T03:00:53;4.15;;;1.70;;
66437;SDS011;54537;47.972;11.662;2023-04-25T03:03:20;5.07;;;2.42;;
66437;SDS011;54537;47.972;11.662;2023-04-25T03:05:48;5.97;;;2.00;;
66437;SDS011;54537;47.972;11.662;2023-04-25T03:08:15;5.57;;;2.35;;
66437;SDS011;54537;47.972;11.662;2023-04-25T03:10:42;4.85;;;1.98;;
66437;SDS011;54537;47.972;11.662;2023-04-25T03:13:08;6.18;;;2.00;;
66437;SDS011;54537;47.972;11.662;2023-04-25T03:15:35;3.97;;;1.98;;
66437;SDS011;54537;47.972;11.662;2023-04-25T03:18:02;6.40;;;2.72;;
66437;SDS011;54537;47.972;11.662;2023-04-25T03:20:28;6.85;;;2.40;;
66437;SDS011;54537;47.972;11.662;2023-04-25T03:22:57;4.80;;;1.98;;
66437;SDS011;54537;47.972;11.662;2023-04-25T03:25:23;4.85;;;2.25;;
66437;SDS011;54537;47.972;11.662;2023-04-25T03:27:50;5.05;;;1.95;;
66437;SDS011;54537;47.972;11.662;2023-04-25T03:30:16;4.85;;;2.10;;
66437;SDS011;54537;47.972;11.662;2023-04-25T03:32:43;4.95;;;1.63;;
66437;SDS011;54537;47.972;11.662;2023-04-25T03:35:10;3.78;;;2.05;;
66437;SDS011;54537;47.972;11.662;2023-04-25T03:37:36;4.45;;;1.85;;
66437;SDS011;54537;47.972;11.662;2023-04-25T03:40:05;3.92;;;1.95;;
66437;SDS011;54537;47.972;11.662;2023-04-25T03:42:32;5.28;;;1.70;;
66437;SDS011;54537;47.972;11.662;2023-04-25T03:44:59;3.83;;;1.92;;
66437;SDS011;54537;47.972;11.662;2023-04-25T03:47:25;3.72;;;1.98;;
66437;SDS011;54537;47.972;11.662;2023-04-25T03:49:52;4.20;;;1.92;;
66437;SDS011;54537;47.972;11.662;2023-04-25T03:52:18;8.95;;;2.05;;
66437;SDS011;54537;47.972;11.662;2023-04-25T03:54:45;5.53;;;1.90;;
66437;SDS011;54537;47.972;11.662;2023-04-25T03:57:13;6.55;;;2.00;;
66437;SDS011;54537;47.972;11.662;2023-04-25T03:59:39;4.85;;;2.03;;
66437;SDS011;54537;47.972;11.662;2023-04-25T04:02:06;4.43;;;1.80;;
66437;SDS011;54537;47.972;11.662;2023-04-25T04:04:32;5.78;;;1.48;;
66437;SDS011;54537;47.972;11.662;2023-04-25T04:06:59;3.50;;;1.67;;
66437;SDS011;54537;47.972;11.662;2023-04-25T04:09:25;2.38;;;1.30;;
66437;SDS011;54537;47.972;11.662;2023-04-25T04:11:52;3.13;;;1.42;;
66437;SDS011;54537;47.972;11.662;2023-04-25T04:14:20;3.85;;;1.70;;
66437;SDS011;54537;47.972;11.662;2023-04-25T04:16:47;13.77;;;4.43;;
66437;SDS011;54537;47.972;11.662;2023-04-25T04:19:13;9.93;;;2.78;;
66437;SDS011;54537;47.972;11.662;2023-04-25T04:21:40;5.78;;;2.42;;
66437;SDS011;54537;47.972;11.662;2023-04-25T04:24:07;9.85;;;3.17;;
66437;SDS011;54537;47.972;11.662;2023-04-25T04:26:33;3.97;;;2.38;;
66437;SDS011;54537;47.972;11.662;2023-04-25T04:29:00;4.50;;;1.98;;
66437;SDS011;54537;47.972;11.662;2023-04-25T04:31:28;6.57;;;2.28;;
66437;SDS011;54537;47.972;11.662;2023-04-25T04:33:55;5.93;;;1.85;;
66437;SDS011;54537;47.972;11.662;2023-04-25T04:36:21;6.47;;;1.90;;
66437;SDS011;54537;47.972;11.662;2023-04-25T04:38:48;6.18;;;2.03;;
66437;SDS011;54537;47.972;11.662;2023-04-25T04:41:14;7.68;;;2.53;;
66437;SDS011;54537;47.972;11.662;2023-04-25T04:43:41;5.68;;;2.25;;
66437;SDS011;54537;47.972;11.662;2023-04-25T04:46:08;3.78;;;1.95;;
66437;SDS011;54537;47.972;11.662;2023-04-25T04:48:36;3.70;;;2.00;;
66437;SDS011;54537;47.972;11.662;2023-04-25T04:51:05;4.85;;;2.13;;
66437;SDS011;54537;47.972;11.662;2023-04-25T04:53:31;6.93;;;1.70;;
66437;SDS011;54537;47.972;11.662;2023-04-25T04:55:58;7.30;;;1.90;;
66437;SDS011;54537;47.972;11.662;2023-04-25T04:58:25;4.72;;;1.98;;
66437;SDS011;54537;47.972;11.662;2023-04-25T05:00:54;8.68;;;2.75;;
66437;SDS011;54537;47.972;11.662;2023-04-25T05:03:20;5.07;;;2.25;;
66437;SDS011;54537;47.972;11.662;2023-04-25T05:05:48;6.18;;;2.00;;
66437;SDS011;54537;47.972;11.662;2023-04-25T05:08:15;6.43;;;2.28;;
66437;SDS011;54537;47.972;11.662;2023-04-25T05:10:41;4.22;;;1.80;;
66437;SDS011;54537;47.972;11.662;2023-04-25T05:13:08;4.15;;;1.83;;
66437;SDS011;54537;47.972;11.662;2023-04-25T05:15:34;15.27;;;3.97;;
66437;SDS011;54537;47.972;11.662;2023-04-25T05:18:01;7.22;;;2.03;;
66437;SDS011;54537;47.972;11.662;2023-04-25T05:20:28;5.78;;;1.58;;
66437;SDS011;54537;47.972;11.662;2023-04-25T05:22:55;4.20;;;1.75;;
66437;SDS011;54537;47.972;11.662;2023-04-25T05:25:22;4.78;;;2.08;;
66437;SDS011;54537;47.972;11.662;2023-04-25T05:27:48;5.68;;;1.88;;
66437;SDS011;54537;47.972;11.662;2023-04-25T05:30:16;4.25;;;1.83;;
66437;SDS011;54537;47.972;11.662;2023-04-25T05:32:42;4.00;;;1.80;;
66437;SDS011;54537;47.972;11.662;2023-04-25T05:35:09;5.75;;;1.83;;
66437;SDS011;54537;47.972;11.662;2023-04-25T05:37:35;5.80;;;1.80;;
66437;SDS011;54537;47.972;11.662;2023-04-25T05:40:04;4.32;;;1.90;;
66437;SDS011;54537;47.972;11.662;2023-04-25T05:42:32;4.70;;;1.70;;
66437;SDS011;54537;47.972;11.662;2023-04-25T05:44:58;4.55;;;1.90;;
66437;SDS011;54537;47.972;11.662;2023-04-25T05:47:25;3.47;;;1.52;;
66437;SDS011;54537;47.972;11.662;2023-04-25T05:49:52;4.35;;;2.00;;
66437;SDS011;54537;47.972;11.662;2023-04-25T05:52:18;3.08;;;1.80;;
66437;SDS011;54537;47.972;11.662;2023-04-25T05:54:45;5.50;;;2.38;;
66437;SDS011;54537;47.972;11.662;2023-04-25T05:57:19;5.10;;;2.05;;
66437;SDS011;54537;47.972;11.662;2023-04-25T05:59:46;4.40;;;2.20;;
66437;SDS011;54537;47.972;11.662;2023-04-25T06:02:13;6.63;;;2.53;;
66437;SDS011;54537;47.972;11.662;2023-04-25T06:04:39;4.45;;;2.03;;
66437;SDS011;54537;47.972;11.662;2023-04-25T06:07:06;5.45;;;2.13;;
66437;SDS011;54537;47.972;11.662;2023-04-25T06:09:32;5.28;;;2.08;;
66437;SDS011;54537;47.972;11.662;2023-04-25T06:11:59;4.28;;;2.08;;
66437;SDS011;54537;47.972;11.662;2023-04-25T06:14:27;5.35;;;2.20;;
66437;SDS011;54537;47.972;11.662;2023-04-25T06:16:54;2.90;;;1.73;;
66437;SDS011;54537;47.972;11.662;2023-04-25T06:19:20;5.97;;;2.67;;
66437;SDS011;54537;47.972;11.662;2023-04-25T06:21:47;5.70;;;2.72;;
66437;SDS011;54537;47.972;11.662;2023-04-25T06:24:13;5.05;;;2.15;;
66437;SDS011;54537;47.972;11.662;2023-04-25T06:26:40;6.40;;;2.30;;
66437;SDS011;54537;47.972;11.662;2023-04-25T06:29:06;5.15;;;2.22;;
66437;SDS011;54537;47.972;11.662;2023-04-25T06:31:34;4.22;;;1.95;;
66437;SDS011;54537;47.972;11.662;2023-04-25T06:34:00;4.45;;;2.17;;
66437;SDS011;54537;47.972;11.662;2023-04-25T06:36:27;4.25;;;2.38;;
66437;SDS011;54537;47.972;11.662;2023-04-25T06:38:54;4.10;;;2.00;;
66437;SDS011;54537;47.972;11.662;2023-04-25T06:41:20;5.93;;;2.42;;
66437;SDS011;54537;47.972;11.662;2023-04-25T06:43:47;7.32;;;2.30;;
66437;SDS011;54537;47.972;11.662;2023-04-25T06:46:13;7.82;;;2.25;;
66437;SDS011;54537;47.972;11.662;2023-04-25T06:48:41;6.70;;;2.20;;
66437;SDS011;54537;47.972;11.662;2023-04-25T06:51:08;5.65;;;2.22;;
66437;SDS011;54537;47.972;11.662;2023-04-25T06:53:34;6.50;;;2.38;;
66437;SDS011;54537;47.972;11.662;2023-04-25T06:56:01;5.93;;;2.60;;
66437;SDS011;54537;47.972;11.662;2023-04-25T06:58:28;6.43;;;2.60;;
66437;SDS011;54537;47.972;11.662;2023-04-25T07:00:54;6.82;;;2.50;;
66437;SDS011;54537;47.972;11.662;2023-04-25T07:03:21;5.40;;;2.30;;
66437;SDS011;54537;47.972;11.662;2023-04-25T07:05:50;4.53;;;2.55;;
66437;SDS011;54537;47.972;11.662;2023-04-25T07:08:16;4.65;;;2.75;;
66437;SDS011;54537;47.972;11.662;2023-04-25T07:10:43;8.55;;;2.78;;
66437;SDS011;54537;47.972;11.662;2023-04-25T07:13:11;4.55;;;2.60;;
66437;SDS011;54537;47.972;11.662;2023-04-25T07:15:37;5.72;;;2.63;;
66437;SDS011;54537;47.972;11.662;2023-04-25T07:18:04;6.72;;;2.78;;
66437;SDS011;54537;47.972;11.662;2023-04-25T07:20:30;8.57;;;3.25;;
66437;SDS011;54537;47.972;11.662;2023-04-25T07:22:59;7.38;;;3.10;;
66437;SDS011;54537;47.972;11.662;2023-04-25T07:25:25;8.32;;;3.20;;
66437;SDS011;54537;47.972;11.662;2023-04-25T07:27:52;6.40;;;2.60;;
66437;SDS011;54537;47.972;11.662;2023-04-25T07:30:18;8.30;;;2.67;;
66437;SDS011;54537;47.972;11.662;2023-04-25T07:32:45;3.45;;;1.90;;
66437;SDS011;54537;47.972;11.662;2023-04-25T07:35:11;6.85;;;2.45;;
66437;SDS011;54537;47.972;11.662;2023-04-25T07:37:38;4.55;;;2.28;;
66437;SDS011;54537;47.972;11.662;2023-04-25T07:40:06;7.30;;;2.60;;
66437;SDS011;54537;47.972;11.662;2023-04-25T07:42:34;4.60;;;2.35;;
66437;SDS011;54537;47.972;11.662;2023-04-25T07:45:01;3.40;;;2.00;;
66437;SDS011;54537;47.972;11.662;2023-04-25T07:47:28;7.82;;;2.00;;
66437;SDS011;54537;47.972;11.662;2023-04-25T07:49:54;4.47;;;2.10;;
66437;SDS011;54537;47.972;11.662;2023-04-25T07:52:22;6.18;;;2.20;;
66437;SDS011;54537;47.972;11.662;2023-04-25T07:54:49;5.57;;;1.80;;
66437;SDS011;54537;47.972;11.662;2023-04-25T07:57:17;4.05;;;1.58;;
66437;SDS011;54537;47.972;11.662;2023-04-25T07:59:45;4.60;;;1.70;;
66437;SDS011;54537;47.972;11.662;2023-04-25T08:02:11;4.65;;;2.20;;
66437;SDS011;54537;47.972;11.662;2023-04-25T08:04:38;4.13;;;2.33;;
66437;SDS011;54537;47.972;11.662;2023-04-25T08:07:04;3.40;;;1.90;;
66437;SDS011;54537;47.972;11.662;2023-04-25T08:09:31;3.83;;;2.13;;
66437;SDS011;54537;47.972;11.662;2023-04-25T08:12:00;4.75;;;2.03;;
66437;SDS011;54537;47.972;11.662;2023-04-25T08:14:28;8.80;;;2.45;;
66437;SDS011;54537;47.972;11.662;2023-04-25T08:17:00;4.70;;;1.90;;
66437;SDS011;54537;47.972;11.662;2023-04-25T08:19:26;5.15;;;2.25;;
66437;SDS011;54537;47.972;11.662;2023-04-25T08:21:53;2.55;;;1.90;;
66437;SDS011;54537;47.972;11.662;2023-04-25T08:24:20;4.18;;;2.08;;
66437;SDS011;54537;47.972;11.662;2023-04-25T08:26:47;6.18;;;2.00;;
66437;SDS011;54537;47.972;11.662;2023-04-25T08:29:13;2.80;;;1.52;;
66437;SDS011;54537;47.972;11.662;2023-04-25T08:31:41;4.10;;;1.83;;
66437;SDS011;54537;47.972;11.662;2023-04-25T08:34:08;5.10;;;1.60;;
66437;SDS011;54537;47.972;11.662;2023-04-25T08:36:34;4.05;;;1.85;;
66437;SDS011;54537;47.972;11.662;2023-04-25T08:39:01;3.72;;;1.80;;
66437;SDS011;54537;47.972;11.662;2023-04-25T08:41:27;9.10;;;2.15;;
66437;SDS011;54537;47.972;11.662;2023-04-25T08:43:54;4.07;;;1.70;;
66437;SDS011;54537;47.972;11.662;2023-04-25T08:46:22;9.32;;;2.05;;
66437;SDS011;54537;47.972;11.662;2023-04-25T08:48:50;4.15;;;1.38;;
66437;SDS011;54537;47.972;11.662;2023-04-25T08:51:21;3.60;;;1.70;;
66437;SDS011;54537;47.972;11.662;2023-04-25T08:53:50;3.63;;;1.88;;
66437;SDS011;54537;47.972;11.662;2023-04-25T08:56:17;3.30;;;1.88;;
66437;SDS011;54537;47.972;11.662;2023-04-25T08:58:47;5.63;;;2.10;;
66437;SDS011;54537;47.972;11.662;2023-04-25T09:01:14;7.90;;;2.35;;
66437;SDS011;54537;47.972;11.662;2023-04-25T09:03:40;3.25;;;2.10;;
66437;SDS011;54537;47.972;11.662;2023-04-25T09:06:09;3.05;;;1.70;;
66437;SDS011;54537;47.972;11.662;2023-04-25T09:08:37;4.75;;;1.75;;
66437;SDS011;54537;47.972;11.662;2023-04-25T09:11:05;3.85;;;2.10;;
66437;SDS011;54537;47.972;11.662;2023-04-25T09:13:32;4.97;;;2.00;;
66437;SDS011;54537;47.972;11.662;2023-04-25T09:15:59;4.50;;;1.50;;
66437;SDS011;54537;47.972;11.662;2023-04-25T09:18:26;5.63;;;1.90;;
66437;SDS011;54537;47.972;11.662;2023-04-25T09:20:53;3.50;;;1.60;;
66437;SDS011;54537;47.972;11.662;2023-04-25T09:23:21;2.85;;;1.55;;
66437;SDS011;54537;47.972;11.662;2023-04-25T09:25:49;4.47;;;1.50;;
66437;SDS011;54537;47.972;11.662;2023-04-25T09:28:16;5.18;;;1.77;;
66437;SDS011;54537;47.972;11.662;2023-04-25T09:30:49;6.35;;;1.80;;
66437;SDS011;54537;47.972;11.662;2023-04-25T09:33:15;3.78;;;2.13;;
66437;SDS011;54537;47.972;11.662;2023-04-25T09:35:42;3.70;;;1.80;;
66437;SDS011;54537;47.972;11.662;2023-04-25T09:38:10;3.95;;;1.73;;
66437;SDS011;54537;47.972;11.662;2023-04-25T09:40:42;4.95;;;1.50;;
66437;SDS011;54537;47.972;11.662;2023-04-25T09:43:09;6.28;;;2.40;;
66437;SDS011;54537;47.972;11.662;2023-04-25T09:45:43;3.00;;;1.60;;
66437;SDS011;54537;47.972;11.662;2023-04-25T09:48:11;4.30;;;2.05;;
66437;SDS011;54537;47.972;11.662;2023-04-25T09:50:37;3.50;;;1.75;;
66437;SDS011;54537;47.972;11.662;2023-04-25T09:53:05;3.90;;;1.52;;
66437;SDS011;54537;47.972;11.662;2023-04-25T09:55:32;2.67;;;1.80;;
66437;SDS011;54537;47.972;11.662;2023-04-25T09:58:01;5.05;;;1.63;;
66437;SDS011;54537;47.972;11.662;2023-04-25T10:00:30;5.88;;;1.83;;
66437;SDS011;54537;47.972;11.662;2023-04-25T10:02:57;3.63;;;1.80;;
66437;SDS011;54537;47.972;11.662;2023-04-25T10:05:25;4.53;;;1.70;;
66437;SDS011;54537;47.972;11.662;2023-04-25T10:07:52;10.77;;;2.28;;
66437;SDS011;54537;47.972;11.662;2023-04-25T10:10:19;3.85;;;1.70;;
66437;SDS011;54537;47.972;11.662;2023-04-25T10:12:50;4.40;;;1.80;;
66437;SDS011;54537;47.972;11.662;2023-04-25T10:15:18;3.13;;;1.52;;
66437;SDS011;54537;47.972;11.662;2023-04-25T10:17:45;3.60;;;1.58;;
66437;SDS011;54537;47.972;11.662;2023-04-25T10:20:12;6.10;;;1.30;;
66437;SDS011;54537;47.972;11.662;2023-04-25T10:22:39;2.63;;;1.75;;
66437;SDS011;54537;47.972;11.662;2023-04-25T10:25:07;2.92;;;1.40;;
66437;SDS011;54537;47.972;11.662;2023-04-25T10:27:35;3.38;;;1.67;;
66437;SDS011;54537;47.972;11.662;2023-04-25T10:30:02;3.40;;;1.60;;
66437;SDS011;54537;47.972;11.662;2023-04-25T10:32:31;2.60;;;1.40;;
66437;SDS011;54537;47.972;11.662;2023-04-25T10:35:06;4.43;;;1.40;;
66437;SDS011;54537;47.972;11.662;2023-04-25T10:37:36;3.30;;;1.30;;
66437;SDS011;54537;47.972;11.662;2023-04-25T10:40:07;3.90;;;1.50;;
66437;SDS011;54537;47.972;11.662;2023-04-25T10:42:35;3.63;;;1.30;;
66437;SDS011;54537;47.972;11.662;2023-04-25T10:45:03;5.75;;;1.52;;
66437;SDS011;54537;47.972;11.662;2023-04-25T10:47:35;2.75;;;1.48;;
66437;SDS011;54537;47.972;11.662;2023-04-25T10:50:04;4.47;;;1.60;;
66437;SDS011;54537;47.972;11.662;2023-04-25T10:52:32;5.95;;;2.17;;
66437;SDS011;54537;47.972;11.662;2023-04-25T10:54:59;2.78;;;1.70;;
66437;SDS011;54537;47.972;11.662;2023-04-25T10:57:29;5.00;;;2.20;;
66437;SDS011;54537;47.972;11.662;2023-04-25T11:02:43;3.78;;;1.60;;
66437;SDS011;54537;47.972;11.662;2023-04-25T11:05:15;2.05;;;1.42;;
66437;SDS011;54537;47.972;11.662;2023-04-25T11:07:49;3.47;;;1.95;;
66437;SDS011;54537;47.972;11.662;2023-04-25T11:10:17;5.13;;;1.55;;
66437;SDS011;54537;47.972;11.662;2023-04-25T11:12:45;3.80;;;1.27;;
66437;SDS011;54537;47.972;11.662;2023-04-25T11:15:11;3.22;;;1.60;;
66437;SDS011;54537;47.972;11.662;2023-04-25T11:17:38;3.53;;;1.92;;
66437;SDS011;54537;47.972;11.662;2023-04-25T11:20:08;3.63;;;1.70;;
66437;SDS011;54537;47.972;11.662;2023-04-25T11:22:37;3.15;;;1.52;;
66437;SDS011;54537;47.972;11.662;2023-04-25T11:25:06;3.85;;;1.88;;
66437;SDS011;54537;47.972;11.662;2023-04-25T11:27:34;5.13;;;2.17;;
66437;SDS011;54537;47.972;11.662;2023-04-25T11:30:09;7.85;;;2.63;;
66437;SDS011;54537;47.972;11.662;2023-04-25T11:32:38;5.40;;;2.03;;
66437;SDS011;54537;47.972;11.662;2023-04-25T11:35:07;5.25;;;2.53;;
66437;SDS011;54537;47.972;11.662;2023-04-25T11:37:34;6.07;;;2.20;;
66437;SDS011;54537;47.972;11.662;2023-04-25T11:40:02;7.07;;;2.42;;
66437;SDS011;54537;47.972;11.662;2023-04-25T11:42:31;7.30;;;2.40;;
66437;SDS011;54537;47.972;11.662;2023-04-25T11:44:58;4.97;;;2.47;;
66437;SDS011;54537;47.972;11.662;2023-04-25T11:47:27;9.40;;;2.35;;
66437;SDS011;54537;47.972;11.662;2023-04-25T11:49:54;4.43;;;2.03;;
66437;SDS011;54537;47.972;11.662;2023-04-25T11:52:22;4.40;;;2.10;;
66437;SDS011;54537;47.972;11.662;2023-04-25T11:54:49;5.88;;;2.28;;
66437;SDS011;54537;47.972;11.662;2023-04-25T11:57:18;4.25;;;2.20;;
66437;SDS011;54537;47.972;11.662;2023-04-25T11:59:45;3.40;;;2.15;;
66437;SDS011;54537;47.972;11.662;2023-04-25T12:02:23;4.50;;;1.98;;
66437;SDS011;54537;47.972;11.662;2023-04-25T12:04:50;4.93;;;2.00;;
66437;SDS011;54537;47.972;11.662;2023-04-25T12:07:16;5.60;;;2.28;;
66437;SDS011;54537;47.972;11.662;2023-04-25T12:09:51;3.90;;;2.08;;
66437;SDS011;54537;47.972;11.662;2023-04-25T12:12:18;6.10;;;2.65;;
66437;SDS011;54537;47.972;11.662;2023-04-25T12:14:46;5.35;;;1.80;;
66437;SDS011;54537;47.972;11.662;2023-04-25T12:17:13;4.05;;;1.80;;
66437;SDS011;54537;47.972;11.662;2023-04-25T12:19:40;2.50;;;1.38;;
66437;SDS011;54537;47.972;11.662;2023-04-25T12:22:18;3.80;;;1.50;;
66437;SDS011;54537;47.972;11.662;2023-04-25T12:24:47;2.67;;;1.35;;
66437;SDS011;54537;47.972;11.662;2023-04-25T12:27:14;2.20;;;1.10;;
66437;SDS011;54537;47.972;11.662;2023-04-25T12:29:49;1.90;;;1.40;;
66437;SDS011;54537;47.972;11.662;2023-04-25T12:32:17;1.75;;;1.40;;
66437;SDS011;54537;47.972;11.662;2023-04-25T12:34:43;2.80;;;1.30;;
66437;SDS011;54537;47.972;11.662;2023-04-25T12:37:10;3.92;;;1.70;;
66437;SDS011;54537;47.972;11.662;2023-04-25T12:39:37;1.92;;;1.33;;
66437;SDS011;54537;47.972;11.662;2023-04-25T12:42:05;4.20;;;1.30;;
66437;SDS011;54537;47.972;11.662;2023-04-25T12:44:32;2.78;;;1.58;;
66437;SDS011;54537;47.972;11.662;2023-04-25T12:46:59;3.65;;;1.17;;
66437;SDS011;54537;47.972;11.662;2023-04-25T12:49:25;1.60;;;1.00;;
66437;SDS011;54537;47.972;11.662;2023-04-25T12:51:52;2.40;;;1.00;;
66437;SDS011;54537;47.972;11.662;2023-04-25T12:54:18;3.20;;;1.00;;
66437;SDS011;54537;47.972;11.662;2023-04-25T12:56:45;1.95;;;1.30;;
66437;SDS011;54537;47.972;11.662;2023-04-25T12:59:13;0.77;;;0.68;;
66437;SDS011;54537;47.972;11.662;2023-04-25T13:01:40;4.97;;;2.00;;
66437;SDS011;54537;47.972;11.662;2023-04-25T13:04:06;2.60;;;1.10;;
66437;SDS011;54537;47.972;11.662;2023-04-25T13:06:33;5.13;;;1.60;;
66437;SDS011;54537;47.972;11.662;2023-04-25T13:08:59;1.92;;;1.00;;
66437;SDS011;54537;47.972;11.662;2023-04-25T13:11:26;1.05;;;0.82;;
66437;SDS011;54537;47.972;11.662;2023-04-25T13:13:53;0.65;;;0.63;;
66437;SDS011;54537;47.972;11.662;2023-04-25T13:16:21;2.28;;;0.90;;
66437;SDS011;54537;47.972;11.662;2023-04-25T13:18:47;2.25;;;0.70;;
66437;SDS011;54537;47.972;11.662;2023-04-25T13:21:14;1.13;;;0.88;;
66437;SDS011;54537;47.972;11.662;2023-04-25T13:23:40;1.38;;;0.82;;
66437;SDS011;54537;47.972;11.662;2023-04-25T13:26:07;2.47;;;1.00;;
66437;SDS011;54537;47.972;11.662;2023-04-25T13:28:34;1.20;;;0.70;;
66437;SDS011;54537;47.972;11.662;2023-04-25T13:31:00;0.95;;;0.90;;
66437;SDS011;54537;47.972;11.662;2023-04-25T13:33:28;0.95;;;0.85;;
66437;SDS011;54537;47.972;11.662;2023-04-25T13:35:55;1.63;;;1.20;;
66437;SDS011;54537;47.972;11.662;2023-04-25T13:38:22;1.25;;;0.98;;
66437;SDS011;54537;47.972;11.662;2023-04-25T13:40:49;1.75;;;0.90;;
66437;SDS011;54537;47.972;11.662;2023-04-25T13:43:17;1.73;;;1.20;;
66437;SDS011;54537;47.972;11.662;2023-04-25T13:45:44;8.75;;;4.00;;
66437;SDS011;54537;47.972;11.662;2023-04-25T13:48:11;4.15;;;2.15;;
66437;SDS011;54537;47.972;11.662;2023-04-25T13:50:38;1.90;;;1.63;;
66437;SDS011;54537;47.972;11.662;2023-04-25T13:53:05;3.45;;;1.73;;
66437;SDS011;54537;47.972;11.662;2023-04-25T13:55:31;1.75;;;1.40;;
66437;SDS011;54537;47.972;11.662;2023-04-25T13:57:58;1.85;;;1.30;;
66437;SDS011;54537;47.972;11.662;2023-04-25T14:00:24;1.20;;;0.90;;
66437;SDS011;54537;47.972;11.662;2023-04-25T14:02:51;1.27;;;1.00;;
66437;SDS011;54537;47.972;11.662;2023-04-25T14:05:18;1.80;;;1.10;;
66437;SDS011;54537;47.972;11.662;2023-04-25T14:07:46;2.08;;;1.35;;
66437;SDS011;54537;47.972;11.662;2023-04-25T14:10:13;2.65;;;1.10;;
66437;SDS011;54537;47.972;11.662;2023-04-25T14:12:39;2.05;;;1.25;;
66437;SDS011;54537;47.972;11.662;2023-04-25T14:15:06;1.73;;;1.20;;
66437;SDS011;54537;47.972;11.662;2023-04-25T14:17:32;1.90;;;1.20;;
66437;SDS011;54537;47.972;11.662;2023-04-25T14:19:59;1.40;;;0.93;;
66437;SDS011;54537;47.972;11.662;2023-04-25T14:22:25;1.17;;;0.98;;
66437;SDS011;54537;47.972;11.662;2023-04-25T14:24:53;2.13;;;1.10;;
66437;SDS011;54537;47.972;11.662;2023-04-25T14:27:20;1.60;;;0.90;;
66437;SDS011;54537;47.972;11.662;2023-04-25T14:29:46;1.17;;;0.95;;
66437;SDS011;54537;47.972;11.662;2023-04-25T14:32:13;1.83;;;1.15;;
66437;SDS011;54537;47.972;11.662;2023-04-25T14:34:40;1.55;;;1.00;;
66437;SDS011;54537;47.972;11.662;2023-04-25T14:37:06;2.03;;;1.20;;